createdAt,value
2023-01-13T00:00:59.245Z,1.40
2023-01-13T00:03:26.558Z,3.43
2023-01-13T00:05:53.861Z,3.70
2023-01-13T00:08:21.842Z,1.27
2023-01-13T00:10:49.081Z,0.97
2023-01-13T00:13:16.420Z,3.17
2023-01-13T00:15:43.889Z,1.50
2023-01-13T00:18:11.174Z,1.70
2023-01-13T00:20:38.413Z,1.30
2023-01-13T00:23:06.277Z,1.63
2023-01-13T00:25:33.560Z,2.20
2023-01-13T00:28:04.359Z,1.00
2023-01-13T00:30:31.614Z,2.97
2023-01-13T00:32:59.133Z,3.47
2023-01-13T00:35:26.341Z,1.10
2023-01-13T00:37:53.624Z,1.17
2023-01-13T00:40:20.967Z,2.50
2023-01-13T00:43:06.740Z,2.87
2023-01-13T00:45:34.306Z,1.47
2023-01-13T00:48:01.726Z,2.23
2023-01-13T00:50:30.263Z,1.57
2023-01-13T00:53:00.596Z,1.57
2023-01-13T00:55:27.919Z,1.00
2023-01-13T00:57:55.251Z,1.20
2023-01-13T01:00:22.462Z,1.60
2023-01-13T01:02:49.698Z,2.40
2023-01-13T01:05:18.239Z,1.03
2023-01-13T01:07:45.473Z,2.27
2023-01-13T01:10:12.924Z,3.03
2023-01-13T01:12:40.457Z,1.77
2023-01-13T01:15:10.071Z,1.20
2023-01-13T01:17:38.575Z,3.90
2023-01-13T01:20:05.960Z,2.10
2023-01-13T01:22:33.517Z,1.37
2023-01-13T01:25:00.816Z,1.80
2023-01-13T01:27:28.077Z,2.13
2023-01-13T01:29:55.470Z,1.40
2023-01-13T01:32:22.718Z,3.20
2023-01-13T01:34:51.611Z,5.73
2023-01-13T01:37:18.898Z,4.60
2023-01-13T01:39:46.163Z,2.07
2023-01-13T01:42:35.921Z,3.63
2023-01-13T01:45:11.478Z,2.10
2023-01-13T01:47:38.839Z,3.27
2023-01-13T01:50:06.344Z,5.63
2023-01-13T01:52:38.464Z,1.67
2023-01-13T01:55:08.275Z,1.70
2023-01-13T01:57:41.877Z,2.20
2023-01-13T02:00:09.711Z,2.47
2023-01-13T02:02:37.262Z,2.47
2023-01-13T02:05:05.080Z,3.17
2023-01-13T02:07:34.292Z,2.73
2023-01-13T02:10:07.429Z,2.27
2023-01-13T02:12:35.543Z,4.03
2023-01-13T02:15:16.674Z,4.90
2023-01-13T02:18:02.909Z,3.80
2023-01-13T02:20:30.233Z,3.37
2023-01-13T02:23:33.005Z,3.00
2023-01-13T02:26:23.338Z,3.93
2023-01-13T02:29:18.837Z,1.80
2023-01-13T02:31:48.241Z,2.90
2023-01-13T02:34:15.503Z,2.70
2023-01-13T02:36:49.563Z,3.33
2023-01-13T02:39:19.788Z,1.90
2023-01-13T02:42:08.746Z,1.83
2023-01-13T02:44:59.296Z,1.77
2023-01-13T02:47:27.888Z,2.53
2023-01-13T02:49:56.969Z,1.80
2023-01-13T02:52:45.540Z,5.73
2023-01-13T02:55:21.763Z,3.07
2023-01-13T02:57:49.382Z,1.53
2023-01-13T03:00:17.189Z,2.80
2023-01-13T03:02:44.483Z,2.10
2023-01-13T03:05:15.406Z,1.67
2023-01-13T03:07:46.128Z,3.30
2023-01-13T03:10:31.969Z,2.33
2023-01-13T03:13:05.555Z,2.27
2023-01-13T03:15:48.215Z,1.57
2023-01-13T03:18:24.962Z,2.40
2023-01-13T03:21:00.780Z,1.80
2023-01-13T03:23:34.177Z,1.83
2023-01-13T03:26:04.537Z,2.93
2023-01-13T03:28:38.432Z,2.13
2023-01-13T03:31:08.696Z,2.30
2023-01-13T03:33:40.557Z,2.57
2023-01-13T03:36:10.164Z,2.03
2023-01-13T03:38:39.337Z,4.67
2023-01-13T03:41:08.637Z,1.83
2023-01-13T03:43:56.201Z,1.97
2023-01-13T03:46:30.431Z,2.27
2023-01-13T03:48:58.799Z,2.23
2023-01-13T03:51:28.493Z,3.20
2023-01-13T03:53:57.702Z,1.57
2023-01-13T03:56:45.243Z,2.60
2023-01-13T03:59:15.213Z,2.60
2023-01-13T04:01:55.364Z,3.97
2023-01-13T04:04:49.100Z,1.97
2023-01-13T04:07:24.912Z,3.73
2023-01-13T04:09:54.481Z,3.83
2023-01-13T04:13:04.337Z,1.20
2023-01-13T04:15:37.730Z,1.50
2023-01-13T04:18:19.993Z,2.40
2023-01-13T04:20:48.531Z,1.43
2023-01-13T04:23:16.327Z,3.67
2023-01-13T04:25:44.382Z,2.10
2023-01-13T04:28:12.240Z,2.77
2023-01-13T04:30:39.755Z,2.10
2023-01-13T04:33:07.605Z,1.27
2023-01-13T04:35:35.564Z,3.10
2023-01-13T04:38:04.229Z,1.77
2023-01-13T04:40:31.697Z,1.10
2023-01-13T04:42:59.346Z,1.47
2023-01-13T04:45:26.563Z,1.30
2023-01-13T04:47:54.076Z,2.20
2023-01-13T04:50:22.713Z,1.20
2023-01-13T04:52:51.194Z,1.77
2023-01-13T04:55:19.469Z,1.60
2023-01-13T04:57:46.745Z,1.87
2023-01-13T05:00:15.027Z,1.23
2023-01-13T05:02:42.720Z,1.10
2023-01-13T05:05:10.526Z,1.50
2023-01-13T05:07:38.020Z,2.53
2023-01-13T05:10:05.530Z,4.20
2023-01-13T05:12:51.554Z,1.40
2023-01-13T05:15:37.623Z,2.23
2023-01-13T05:18:06.030Z,2.37
2023-01-13T05:20:33.256Z,1.67
2023-01-13T05:23:19.246Z,2.50
2023-01-13T05:25:47.984Z,3.30
2023-01-13T05:28:15.382Z,2.57
2023-01-13T05:30:44.384Z,1.67
2023-01-13T05:33:12.161Z,2.00
2023-01-13T05:35:40.130Z,1.70
2023-01-13T05:38:07.579Z,1.30
2023-01-13T05:40:53.595Z,1.33
2023-01-13T05:43:22.965Z,4.73
2023-01-13T05:45:51.740Z,1.33
2023-01-13T05:48:20.423Z,1.43
2023-01-13T05:50:49.311Z,1.30
2023-01-13T05:53:17.519Z,1.20
2023-01-13T05:55:45.325Z,1.10
2023-01-13T05:58:14.078Z,1.00
2023-01-13T06:00:41.995Z,1.13
2023-01-13T06:03:09.591Z,0.97
2023-01-13T06:05:37.001Z,0.90
2023-01-13T06:08:05.306Z,0.93
2023-01-13T06:10:32.745Z,1.07
2023-01-13T06:13:02.734Z,0.80
2023-01-13T06:15:30.087Z,1.03
2023-01-13T06:17:57.903Z,0.90
2023-01-13T06:20:25.820Z,1.00
2023-01-13T06:22:54.712Z,2.30
2023-01-13T06:25:30.182Z,0.90
2023-01-13T06:27:59.254Z,1.20
2023-01-13T06:30:28.683Z,1.00
2023-01-13T06:32:58.871Z,0.90
2023-01-13T06:35:29.474Z,1.63
2023-01-13T06:37:57.681Z,1.03
2023-01-13T06:40:25.095Z,1.00
2023-01-13T06:43:15.791Z,1.00
2023-01-13T06:45:46.361Z,1.47
2023-01-13T06:48:13.696Z,1.00
2023-01-13T06:50:42.421Z,1.10
2023-01-13T06:53:10.287Z,1.00
2023-01-13T06:55:38.055Z,1.00
2023-01-13T06:58:05.378Z,0.93
2023-01-13T07:00:35.602Z,1.33
2023-01-13T07:03:21.571Z,0.97
2023-01-13T07:05:53.269Z,0.90
2023-01-13T07:08:20.771Z,1.10
2023-01-13T07:10:47.990Z,0.90
2023-01-13T07:13:33.896Z,1.10
2023-01-13T07:16:02.308Z,1.00
2023-01-13T07:18:31.785Z,1.30
2023-01-13T07:21:03.355Z,1.17
2023-01-13T07:23:31.700Z,1.00
2023-01-13T07:25:59.639Z,1.33
2023-01-13T07:28:27.584Z,1.10
2023-01-13T07:30:55.466Z,1.20
2023-01-13T07:33:22.722Z,1.00
2023-01-13T07:35:55.996Z,1.20
2023-01-13T07:38:23.497Z,1.20
2023-01-13T07:40:50.925Z,1.10
2023-01-13T07:43:33.952Z,1.00
2023-01-13T07:46:05.325Z,1.20
2023-01-13T07:48:33.786Z,1.00
2023-01-13T07:51:05.136Z,1.57
2023-01-13T07:53:32.977Z,1.10
2023-01-13T07:56:00.995Z,1.10
2023-01-13T07:58:28.658Z,1.20
2023-01-13T08:00:56.350Z,1.07
2023-01-13T08:03:23.772Z,1.13
2023-01-13T08:05:51.138Z,1.10
2023-01-13T08:08:19.600Z,1.07
2023-01-13T08:10:47.118Z,1.17
2023-01-13T08:13:19.948Z,1.00
2023-01-13T08:15:52.159Z,1.80
2023-01-13T08:18:22.627Z,0.90
2023-01-13T08:20:52.650Z,0.83
2023-01-13T08:23:20.848Z,1.00
2023-01-13T08:25:48.343Z,1.10
2023-01-13T08:28:16.436Z,1.00
2023-01-13T08:30:44.240Z,0.90
2023-01-13T08:33:12.717Z,2.10
2023-01-13T08:35:40.887Z,0.87
2023-01-13T08:38:09.108Z,0.80
2023-01-13T08:40:36.592Z,1.00
2023-01-13T08:43:04.273Z,0.93
2023-01-13T08:45:31.788Z,0.97
2023-01-13T08:47:59.347Z,0.80
2023-01-13T08:50:26.631Z,0.97
2023-01-13T08:52:54.235Z,0.90
2023-01-13T08:55:21.521Z,0.80
2023-01-13T08:57:48.818Z,0.90
2023-01-13T09:00:17.317Z,1.53
2023-01-13T09:02:44.934Z,1.00
2023-01-13T09:05:12.244Z,1.37
2023-01-13T09:07:39.630Z,1.00
2023-01-13T09:10:08.514Z,1.30
2023-01-13T09:13:11.162Z,1.00
2023-01-13T09:15:38.974Z,0.90
2023-01-13T09:18:06.401Z,0.83
2023-01-13T09:20:34.027Z,0.90
2023-01-13T09:23:01.651Z,0.90
2023-01-13T09:25:29.061Z,0.83
2023-01-13T09:27:57.090Z,1.00
2023-01-13T09:30:24.670Z,1.00
2023-01-13T09:33:11.965Z,1.00
2023-01-13T09:35:39.543Z,1.07
2023-01-13T09:38:07.585Z,1.07
2023-01-13T09:40:35.013Z,1.10
2023-01-13T09:43:23.565Z,1.00
2023-01-13T09:45:56.043Z,0.90
2023-01-13T09:48:32.070Z,0.80
2023-01-13T09:51:17.631Z,0.80
2023-01-13T09:53:48.894Z,0.77
2023-01-13T09:56:16.225Z,0.90
2023-01-13T09:58:44.453Z,1.20
2023-01-13T10:01:30.565Z,1.00
2023-01-13T10:03:58.747Z,0.77
2023-01-13T10:06:36.200Z,0.80
2023-01-13T10:09:03.755Z,1.43
2023-01-13T10:11:51.829Z,0.90
2023-01-13T10:14:37.646Z,1.13
2023-01-13T10:17:20.319Z,0.90
2023-01-13T10:20:14.016Z,0.90
2023-01-13T10:22:41.411Z,1.07
2023-01-13T10:25:29.106Z,0.93
2023-01-13T10:27:57.154Z,0.90
2023-01-13T10:30:31.952Z,0.90
2023-01-13T10:33:00.795Z,0.87
2023-01-13T10:35:46.730Z,0.83
2023-01-13T10:38:19.116Z,1.47
2023-01-13T10:41:00.174Z,1.07
2023-01-13T10:43:28.269Z,1.73
2023-01-13T10:46:02.202Z,1.00
2023-01-13T10:48:37.892Z,0.90
2023-01-13T10:51:17.838Z,1.00
2023-01-13T10:53:48.152Z,2.50
2023-01-13T10:56:17.836Z,1.13
2023-01-13T10:58:45.379Z,1.07
2023-01-13T11:01:20.764Z,0.97
2023-01-13T11:03:48.359Z,0.90
2023-01-13T11:06:26.469Z,1.23
2023-01-13T11:08:55.592Z,0.90
2023-01-13T11:11:38.740Z,0.87
2023-01-13T11:14:28.068Z,0.90
2023-01-13T11:16:59.006Z,0.90
2023-01-13T11:19:28.515Z,1.10
2023-01-13T11:21:58.851Z,1.50
2023-01-13T11:24:38.572Z,3.00
2023-01-13T11:27:12.698Z,1.40
2023-01-13T11:29:54.906Z,0.90
2023-01-13T11:32:24.201Z,0.90
2023-01-13T11:35:02.917Z,0.87
2023-01-13T11:37:34.483Z,0.90
2023-01-13T11:40:08.851Z,2.10
2023-01-13T11:42:42.737Z,0.80
2023-01-13T11:45:25.139Z,0.90
2023-01-13T11:47:54.754Z,0.90
2023-01-13T11:50:29.855Z,0.73
2023-01-13T11:53:06.670Z,0.90
2023-01-13T11:55:40.071Z,1.20
2023-01-13T11:58:38.786Z,0.80
2023-01-13T12:01:17.697Z,0.80
2023-01-13T12:03:54.386Z,0.80
2023-01-13T12:06:41.192Z,0.80
2023-01-13T12:09:11.999Z,1.57
2023-01-13T12:12:20.602Z,1.13
2023-01-13T12:15:01.138Z,1.10
2023-01-13T12:17:37.739Z,0.80
2023-01-13T12:20:25.173Z,1.00
2023-01-13T12:22:53.803Z,1.27
2023-01-13T12:25:24.282Z,1.00
2023-01-13T12:27:59.191Z,1.13
2023-01-13T12:30:37.126Z,3.60
2023-01-13T12:33:13.522Z,2.10
2023-01-13T12:35:42.380Z,1.17
2023-01-13T12:38:17.522Z,1.40
2023-01-13T12:40:57.013Z,1.20
2023-01-13T12:43:43.939Z,2.73
2023-01-13T12:46:23.964Z,1.87
2023-01-13T12:48:55.415Z,1.43
2023-01-13T12:51:23.652Z,3.27
2023-01-13T12:53:51.321Z,15.83
2023-01-13T12:56:28.234Z,3.57
2023-01-13T12:59:16.243Z,7.67
2023-01-13T13:01:44.373Z,4.90
2023-01-13T13:04:13.162Z,2.77
2023-01-13T13:06:42.863Z,3.23
2023-01-13T13:09:45.957Z,3.37
2023-01-13T13:13:04.360Z,2.80
2023-01-13T13:15:35.962Z,5.20
2023-01-13T13:18:08.768Z,7.37
2023-01-13T13:20:57.144Z,6.93
2023-01-13T13:23:31.627Z,4.37
2023-01-13T13:26:06.544Z,3.77
2023-01-13T13:28:37.969Z,2.30
2023-01-13T13:31:20.656Z,4.83
2023-01-13T13:33:48.139Z,5.00
2023-01-13T13:36:27.726Z,3.57
2023-01-13T13:39:24.220Z,3.90
2023-01-13T13:42:11.411Z,3.23
2023-01-13T13:45:02.416Z,2.00
2023-01-13T13:47:36.820Z,5.63
2023-01-13T13:50:09.049Z,4.67
2023-01-13T13:52:45.755Z,4.13
2023-01-13T13:55:21.038Z,2.27
2023-01-13T13:57:49.785Z,1.40
2023-01-13T14:00:20.304Z,3.43
2023-01-13T14:02:52.913Z,6.37
2023-01-13T14:05:20.256Z,2.60
2023-01-13T14:07:49.397Z,2.83
2023-01-13T14:10:19.922Z,3.67
2023-01-13T14:12:47.362Z,3.60
2023-01-13T14:15:29.011Z,1.97
2023-01-13T14:17:57.832Z,3.27
2023-01-13T14:20:25.162Z,3.23
2023-01-13T14:22:53.819Z,1.47
2023-01-13T14:25:27.361Z,1.40
2023-01-13T14:27:55.412Z,1.33
2023-01-13T14:30:24.029Z,3.10
2023-01-13T14:32:51.332Z,1.40
2023-01-13T14:35:18.855Z,2.90
2023-01-13T14:37:48.927Z,2.73
2023-01-13T14:40:39.430Z,4.33
2023-01-13T14:43:14.652Z,1.93
2023-01-13T14:45:44.578Z,11.33
2023-01-13T14:48:14.480Z,3.40
2023-01-13T14:50:42.747Z,1.90
2023-01-13T14:53:27.009Z,2.23
2023-01-13T14:55:54.298Z,2.03
2023-01-13T14:58:21.564Z,1.10
2023-01-13T15:00:50.047Z,7.30
2023-01-13T15:03:18.862Z,1.30
2023-01-13T15:05:50.980Z,2.47
2023-01-13T15:08:23.184Z,2.30
2023-01-13T15:11:00.007Z,3.10
2023-01-13T15:13:27.408Z,2.90
2023-01-13T15:15:56.099Z,4.70
2023-01-13T15:18:24.694Z,4.37
2023-01-13T15:20:52.068Z,2.40
2023-01-13T15:23:20.038Z,2.17
2023-01-13T15:25:47.957Z,2.57
2023-01-13T15:28:22.800Z,3.83
2023-01-13T15:30:50.800Z,2.00
2023-01-13T15:33:18.430Z,2.73
2023-01-13T15:35:47.060Z,2.23
2023-01-13T15:38:16.725Z,1.67
2023-01-13T15:40:44.258Z,4.13
2023-01-13T15:43:38.069Z,7.10
2023-01-13T15:46:29.437Z,3.00
2023-01-13T15:48:57.915Z,2.40
2023-01-13T15:51:26.131Z,2.80
2023-01-13T15:53:54.210Z,14.93
2023-01-13T15:56:26.774Z,6.53
2023-01-13T15:58:54.345Z,2.67
2023-01-13T16:01:23.293Z,1.73
2023-01-13T16:03:52.225Z,5.13
2023-01-13T16:06:28.314Z,2.20
2023-01-13T16:08:55.687Z,3.50
2023-01-13T16:11:23.565Z,2.70
2023-01-13T16:13:50.819Z,2.90
2023-01-13T16:16:25.476Z,3.33
2023-01-13T16:18:53.245Z,1.70
2023-01-13T16:21:20.985Z,4.27
2023-01-13T16:23:50.904Z,3.67
2023-01-13T16:26:20.860Z,3.37
2023-01-13T16:28:48.485Z,4.70
2023-01-13T16:31:17.974Z,4.33
2023-01-13T16:33:45.443Z,2.80
2023-01-13T16:36:16.223Z,1.97
2023-01-13T16:38:43.818Z,4.30
2023-01-13T16:41:11.187Z,3.50
2023-01-13T16:43:39.897Z,3.97
2023-01-13T16:46:17.278Z,3.97
2023-01-13T16:48:44.789Z,2.13
2023-01-13T16:51:12.039Z,4.60
2023-01-13T16:53:42.761Z,1.77
2023-01-13T16:56:30.409Z,3.03
2023-01-13T16:58:58.740Z,1.50
2023-01-13T17:01:27.551Z,3.53
2023-01-13T17:03:55.342Z,2.27
2023-01-13T17:06:25.080Z,3.63
2023-01-13T17:08:53.443Z,4.30
2023-01-13T17:11:20.988Z,4.43
2023-01-13T17:13:48.440Z,2.03
2023-01-13T17:16:23.623Z,1.80
2023-01-13T17:18:53.772Z,5.73
2023-01-13T17:21:21.098Z,2.33
2023-01-13T17:23:48.497Z,1.60
2023-01-13T17:26:29.845Z,1.70
2023-01-13T17:28:57.276Z,5.77
2023-01-13T17:31:25.337Z,5.10
2023-01-13T17:33:52.661Z,5.50
2023-01-13T17:36:19.995Z,2.47
2023-01-13T17:38:47.295Z,3.63
2023-01-13T17:41:14.527Z,3.53
2023-01-13T17:43:42.383Z,3.20
2023-01-13T17:46:13.061Z,2.47
2023-01-13T17:48:40.513Z,5.30
2023-01-13T17:51:12.526Z,2.80
2023-01-13T17:53:44.237Z,4.33
2023-01-13T17:56:12.375Z,4.00
2023-01-13T17:58:41.640Z,3.67
2023-01-13T18:01:14.702Z,6.33
2023-01-13T18:03:42.051Z,2.60
2023-01-13T18:06:16.370Z,3.23
2023-01-13T18:08:43.700Z,2.00
2023-01-13T18:11:11.109Z,1.30
2023-01-13T18:13:49.579Z,1.43
2023-01-13T18:16:18.471Z,1.63
2023-01-13T18:18:47.045Z,1.17
2023-01-13T18:21:43.921Z,1.17
2023-01-13T18:24:35.229Z,1.33
2023-01-13T18:27:21.721Z,1.23
2023-01-13T18:29:54.377Z,1.27
2023-01-13T18:32:22.676Z,2.70
2023-01-13T18:34:53.923Z,1.20
2023-01-13T18:37:26.735Z,1.10
2023-01-13T18:39:54.024Z,1.20
2023-01-13T18:42:40.103Z,1.80
2023-01-13T18:45:08.589Z,1.20
2023-01-13T18:47:39.672Z,1.00
2023-01-13T18:50:07.332Z,1.30
2023-01-13T18:52:34.576Z,1.17
2023-01-13T18:55:02.731Z,1.93
2023-01-13T18:57:30.068Z,7.10
2023-01-13T18:59:57.740Z,5.63
2023-01-13T19:02:26.657Z,6.00
2023-01-13T19:04:56.595Z,1.70
2023-01-13T19:07:27.251Z,2.93
2023-01-13T19:10:00.902Z,1.60
2023-01-13T19:12:31.078Z,2.50
2023-01-13T19:14:59.031Z,1.40
2023-01-13T19:17:28.021Z,5.23
2023-01-13T19:19:57.314Z,2.50
2023-01-13T19:22:32.843Z,4.07
2023-01-13T19:25:00.980Z,6.40
2023-01-13T19:27:28.770Z,3.70
2023-01-13T19:29:58.783Z,9.70
2023-01-13T19:32:25.986Z,10.07
2023-01-13T19:34:55.128Z,8.93
2023-01-13T19:37:22.669Z,8.40
2023-01-13T19:39:49.910Z,8.13
2023-01-13T19:42:36.514Z,7.60
2023-01-13T19:45:22.373Z,6.90
2023-01-13T19:47:50.023Z,11.13
2023-01-13T19:50:17.367Z,11.57
2023-01-13T19:52:44.752Z,7.20
2023-01-13T19:55:12.508Z,6.83
2023-01-13T19:57:41.440Z,11.07
2023-01-13T20:00:09.470Z,3.00
2023-01-13T20:02:37.517Z,6.80
2023-01-13T20:05:08.036Z,4.73
2023-01-13T20:07:35.416Z,6.50
2023-01-13T20:10:02.970Z,3.93
2023-01-13T20:12:30.298Z,5.00
2023-01-13T20:14:57.752Z,6.30
2023-01-13T20:17:28.740Z,3.63
2023-01-13T20:19:57.958Z,3.60
2023-01-13T20:22:25.733Z,3.93
2023-01-13T20:24:55.407Z,5.37
2023-01-13T20:27:25.101Z,2.30
2023-01-13T20:29:52.400Z,5.07
2023-01-13T20:32:19.637Z,5.53
2023-01-13T20:34:46.885Z,4.13
2023-01-13T20:37:14.292Z,3.63
2023-01-13T20:39:45.413Z,4.00
2023-01-13T20:42:31.833Z,4.47
2023-01-13T20:45:00.384Z,3.87
2023-01-13T20:47:29.166Z,4.03
2023-01-13T20:49:56.690Z,4.50
2023-01-13T20:52:24.763Z,4.97
2023-01-13T20:54:52.267Z,7.27
2023-01-13T20:57:19.522Z,11.60
2023-01-13T20:59:46.788Z,3.63
2023-01-13T21:02:14.985Z,4.27
2023-01-13T21:04:42.377Z,2.43
2023-01-13T21:07:09.871Z,4.57
2023-01-13T21:09:37.238Z,3.57
2023-01-13T21:12:23.612Z,1.83
2023-01-13T21:15:20.138Z,2.67
2023-01-13T21:18:06.937Z,6.20
2023-01-13T21:20:34.999Z,4.80
2023-01-13T21:23:03.301Z,3.93
2023-01-13T21:25:30.945Z,4.13
2023-01-13T21:28:04.550Z,4.07
2023-01-13T21:30:32.024Z,3.60
2023-01-13T21:33:02.778Z,2.43
2023-01-13T21:35:30.222Z,2.63
2023-01-13T21:37:58.093Z,6.00
2023-01-13T21:40:25.385Z,4.77
2023-01-13T21:43:11.248Z,4.70
2023-01-13T21:45:58.619Z,4.23
2023-01-13T21:48:25.962Z,4.07
2023-01-13T21:50:53.515Z,9.43
2023-01-13T21:53:20.706Z,4.87
2023-01-13T21:55:51.344Z,4.13
2023-01-13T21:58:18.734Z,3.33
2023-01-13T22:00:46.388Z,3.93
2023-01-13T22:03:18.750Z,4.07
2023-01-13T22:05:47.153Z,7.63
2023-01-13T22:08:14.588Z,5.43
2023-01-13T22:10:57.629Z,5.53
2023-01-13T22:13:43.872Z,5.77
2023-01-13T22:16:11.236Z,5.70
2023-01-13T22:18:38.586Z,5.27
2023-01-13T22:21:06.149Z,3.17
2023-01-13T22:23:33.437Z,4.70
2023-01-13T22:26:04.987Z,7.03
2023-01-13T22:28:40.955Z,6.63
2023-01-13T22:31:09.573Z,2.90
2023-01-13T22:33:36.862Z,6.70
2023-01-13T22:36:04.898Z,7.03
2023-01-13T22:38:33.464Z,5.13
2023-01-13T22:41:03.832Z,8.93
2023-01-13T22:43:32.282Z,6.97
2023-01-13T22:46:10.372Z,10.50
2023-01-13T22:48:38.233Z,6.53
2023-01-13T22:51:07.084Z,4.43
2023-01-13T22:53:34.585Z,4.00
2023-01-13T22:56:02.377Z,5.33
2023-01-13T22:58:30.106Z,5.47
2023-01-13T23:00:57.471Z,8.83
2023-01-13T23:03:24.844Z,6.80
2023-01-13T23:05:56.360Z,4.63
2023-01-13T23:08:23.800Z,4.43
2023-01-13T23:10:51.195Z,8.40
2023-01-13T23:13:18.548Z,6.53
2023-01-13T23:15:45.899Z,8.80
2023-01-13T23:18:13.215Z,6.50
2023-01-13T23:20:40.592Z,3.87
2023-01-13T23:23:07.837Z,3.47
2023-01-13T23:25:35.526Z,7.13
2023-01-13T23:28:03.012Z,7.97
2023-01-13T23:30:30.330Z,3.67
2023-01-13T23:32:57.632Z,6.83
2023-01-13T23:35:25.054Z,6.47
2023-01-13T23:37:52.312Z,5.43
2023-01-13T23:40:19.830Z,3.43
2023-01-13T23:42:47.128Z,3.17
2023-01-13T23:45:14.350Z,4.27
2023-01-13T23:47:41.604Z,3.07
2023-01-13T23:50:09.148Z,4.87
2023-01-13T23:52:39.441Z,4.50
2023-01-13T23:55:06.827Z,3.13
2023-01-13T23:57:34.181Z,3.87
